Time;durP1;ratioP1;P1;durP2;ratioP2;P2;SDS_P1;SDS_P2;PMS_P1;PMS_P2;Temp;Humidity;BMP_temperature;BMP_pressure;BME280_temperature;BME280_humidity;BME280_pressure;Samples;Min_cycle;Max_cycle;Signal;HPM_P1;HPM_P2
2021/08/25 00:00:46;;;;;;;;;;;14.30;99.90;;;;;;5053794;28;19987;-72
2021/08/25 00:03:12;;;;;;;;;;;14.30;99.90;;;;;;5054780;28;19905;-71
2021/08/25 00:05:37;;;;;;;;;;;14.30;99.90;;;;;;5054635;28;19959;-72
2021/08/25 00:08:03;;;;;;;;;;;14.20;99.90;;;;;;5054548;28;19958;-70
2021/08/25 00:10:29;;;;;;;;;;;14.30;99.90;;;;;;5054986;28;19927;-69
2021/08/25 00:12:54;;;;;;;;;;;14.40;99.90;;;;;;5054684;28;19915;-70
2021/08/25 00:15:19;;;;;;;;;;;14.30;99.90;;;;;;5075174;28;19979;-69
2021/08/25 00:17:45;;;;;;;;;;;14.20;99.90;;;;;;5075814;28;19919;-70
2021/08/25 00:20:11;;;;;;;;;;;14.10;99.90;;;;;;5074494;28;19912;-70
2021/08/25 00:22:36;;;;;;;;;;;14.00;99.90;;;;;;5074358;28;19932;-69
2021/08/25 00:25:02;;;;;;;;;;;14.00;99.90;;;;;;5072487;28;19908;-70
2021/08/25 00:30:09;;;;;;;;;;;13.90;99.90;;;;;;5378290;23;20373;-72
2021/08/25 00:32:34;;;;;;;;;;;13.80;99.90;;;;;;5017596;28;19917;-73
2021/08/25 00:35:00;;;;;;;;;;;13.80;99.90;;;;;;5019285;28;19909;-73
2021/08/25 00:37:25;;;;;;;;;;;14.00;99.90;;;;;;5018097;28;19921;-74
2021/08/25 00:39:51;;;;;;;;;;;14.00;99.90;;;;;;5017168;28;19913;-72
2021/08/25 00:42:16;;;;;;;;;;;13.90;99.90;;;;;;5015610;28;19905;-70
2021/08/25 00:44:42;;;;;;;;;;;13.90;99.90;;;;;;5014559;28;19912;-70
2021/08/25 00:47:07;;;;;;;;;;;13.80;99.90;;;;;;5014565;28;20415;-73
2021/08/25 00:49:33;;;;;;;;;;;13.80;99.90;;;;;;5013182;28;20008;-72
2021/08/25 00:51:58;;;;;;;;;;;13.80;99.90;;;;;;5014909;28;19905;-71
2021/08/25 00:54:23;;;;;;;;;;;13.80;99.90;;;;;;5013101;28;19906;-71
2021/08/25 00:56:50;;;;;;;;;;;13.80;99.90;;;;;;5014429;28;19905;-72
2021/08/25 00:59:17;;;;;;;;;;;13.80;99.90;;;;;;5014096;28;19906;-71
2021/08/25 01:01:50;;;;;;;;;;;14.00;99.90;;;;;;5013052;28;19913;-70
2021/08/25 01:04:20;;;;;;;;;;;14.00;99.90;;;;;;5014198;28;19944;-71
2021/08/25 01:06:45;;;;;;;;;;;14.00;99.90;;;;;;5014241;28;19905;-71
2021/08/25 01:09:11;;;;;;;;;;;14.00;99.90;;;;;;5014449;28;19912;-71
2021/08/25 01:11:41;;;;;;;;;;;14.00;99.90;;;;;;5014481;28;19912;-70
2021/08/25 01:14:07;;;;;;;;;;;14.00;99.90;;;;;;5013324;28;19906;-71
2021/08/25 01:16:34;;;;;;;;;;;13.90;99.90;;;;;;5014180;28;19960;-70
2021/08/25 01:18:59;;;;;;;;;;;13.90;99.90;;;;;;5014260;28;19905;-71
2021/08/25 01:21:25;;;;;;;;;;;13.80;99.90;;;;;;5013106;28;20085;-69
2021/08/25 01:23:52;;;;;;;;;;;13.70;99.90;;;;;;4999366;28;19976;-69
2021/08/25 01:27:29;;;;;;;11.50;10.40;;;13.60;99.90;;;;;;5121846;27;20317;-70
2021/08/25 01:29:56;;;;;;;11.25;10.23;;;13.40;99.90;;;;;;5105802;28;20115;-74
2021/08/25 01:32:22;;;;;;;12.90;11.70;;;13.30;99.90;;;;;;5089943;28;20085;-70
2021/08/25 01:34:52;;;;;;;12.90;11.05;;;13.20;99.90;;;;;;5090233;28;20028;-69
2021/08/25 01:37:18;;;;;;;12.45;11.25;;;13.30;99.90;;;;;;5103482;28;20024;-72
2021/08/25 01:39:43;;;;;;;12.00;10.90;;;13.20;99.90;;;;;;5089119;28;20116;-69
2021/08/25 01:42:09;;;;;;;11.98;10.93;;;13.20;99.90;;;;;;5089088;28;20055;-71
2021/08/25 01:44:36;;;;;;;11.95;10.85;;;13.10;99.90;;;;;;5089185;28;20021;-72
2021/08/25 01:47:02;;;;;;;12.18;11.05;;;13.10;99.90;;;;;;5088856;28;20032;-73
2021/08/25 01:49:27;;;;;;;12.00;10.93;;;13.10;99.90;;;;;;5080017;28;20033;-71
2021/08/25 01:51:57;;;;;;;12.02;11.02;;;13.20;99.90;;;;;;5068162;28;20029;-71
2021/08/25 01:54:23;;;;;;;12.65;11.45;;;13.10;99.90;;;;;;5067518;28;20023;-72
2021/08/25 01:56:49;;;;;;;15.20;11.15;;;13.10;99.90;;;;;;5067137;28;20029;-70
2021/08/25 01:59:14;;;;;;;11.88;10.57;;;13.00;99.90;;;;;;5067341;28;20403;-71
2021/08/25 02:01:40;;;;;;;11.45;10.35;;;13.00;99.90;;;;;;5068608;28;20021;-69
2021/08/25 02:04:05;;;;;;;12.20;11.13;;;12.90;99.90;;;;;;5068407;28;20044;-71
2021/08/25 02:06:31;;;;;;;12.18;10.98;;;12.90;99.90;;;;;;5068278;28;20029;-69
2021/08/25 02:08:57;;;;;;;13.95;11.40;;;12.90;99.90;;;;;;5068430;28;20108;-72
2021/08/25 02:11:23;;;;;;;12.13;10.82;;;12.90;99.90;;;;;;5068356;28;20016;-70
2021/08/25 02:13:48;;;;;;;12.27;11.07;;;12.90;99.90;;;;;;5067016;28;20032;-70
2021/08/25 02:16:14;;;;;;;16.30;11.70;;;12.90;99.90;;;;;;5068262;28;20495;-69
2021/08/25 02:18:39;;;;;;;13.27;11.98;;;12.90;99.90;;;;;;5068881;28;20494;-69
2021/08/25 02:21:05;;;;;;;12.82;11.63;;;12.80;99.90;;;;;;5079863;28;20027;-69
2021/08/25 02:23:30;;;;;;;15.50;11.52;;;12.80;99.90;;;;;;5088283;28;20032;-70
2021/08/25 02:25:56;;;;;;;12.07;11.02;;;12.90;99.90;;;;;;5088208;28;20444;-69
2021/08/25 02:28:21;;;;;;;13.25;11.85;;;12.80;99.90;;;;;;5084997;28;20621;-70
2021/08/25 02:30:47;;;;;;;14.20;11.23;;;12.80;99.90;;;;;;5073316;28;20514;-70
2021/08/25 02:33:12;;;;;;;12.75;11.55;;;12.80;99.90;;;;;;5067876;28;20048;-70
2021/08/25 02:35:38;;;;;;;12.18;11.07;;;12.70;99.90;;;;;;5067799;28;20025;-70
2021/08/25 02:38:04;;;;;;;12.98;11.68;;;12.70;99.90;;;;;;5057202;28;20059;-70
2021/08/25 02:40:30;;;;;;;12.77;11.63;;;12.60;99.90;;;;;;5053077;28;20029;-69
2021/08/25 02:42:55;;;;;;;13.25;11.30;;;12.60;99.90;;;;;;5054616;28;20025;-69
2021/08/25 02:45:21;;;;;;;12.13;10.93;;;12.60;99.90;;;;;;5054266;28;20032;-70
2021/08/25 02:47:46;;;;;;;13.05;11.68;;;12.60;99.90;;;;;;5054422;28;20108;-71
2021/08/25 02:50:12;;;;;;;13.35;11.98;;;12.60;99.90;;;;;;5054042;28;20051;-69
2021/08/25 02:52:38;;;;;;;15.43;11.88;;;12.70;99.90;;;;;;5052920;28;20106;-69
2021/08/25 02:55:04;;;;;;;13.45;12.23;;;12.60;99.90;;;;;;5054144;28;20017;-69
2021/08/25 02:57:29;;;;;;;13.07;11.38;;;12.60;99.90;;;;;;5054050;28;20025;-69
2021/08/25 02:59:55;;;;;;;12.48;11.38;;;12.60;99.90;;;;;;5053838;28;20357;-68
2021/08/25 03:02:20;;;;;;;12.80;11.57;;;12.60;99.90;;;;;;5052907;28;20368;-70
2021/08/25 03:04:46;;;;;;;12.45;11.35;;;12.60;99.90;;;;;;5054014;28;20017;-69
2021/08/25 03:07:11;;;;;;;12.52;11.40;;;12.50;99.90;;;;;;5053928;28;20082;-68
2021/08/25 03:09:37;;;;;;;12.07;10.88;;;12.50;99.90;;;;;;5053763;28;20040;-68
2021/08/25 03:12:03;;;;;;;17.63;11.88;;;12.50;99.90;;;;;;5053813;28;20669;-70
2021/08/25 03:14:28;;;;;;;13.57;11.63;;;12.40;99.90;;;;;;5053817;28;20013;-69
2021/08/25 03:16:54;;;;;;;12.77;11.32;;;12.40;99.90;;;;;;5052458;28;20472;-69
2021/08/25 03:19:19;;;;;;;15.23;12.13;;;12.40;99.90;;;;;;5059256;28;20028;-69
2021/08/25 03:21:45;;;;;;;12.57;11.07;;;12.40;99.90;;;;;;5066270;28;20398;-70
2021/08/25 03:24:10;;;;;;;13.85;12.52;;;12.30;99.90;;;;;;5073740;28;20483;-70
2021/08/25 03:26:36;;;;;;;12.20;11.10;;;12.40;99.90;;;;;;5073361;28;20039;-70
2021/08/25 03:29:03;;;;;;;14.07;12.20;;;12.30;99.90;;;;;;5072193;28;20021;-70
2021/08/25 03:31:29;;;;;;;15.25;12.52;;;12.30;99.90;;;;;;5033582;28;20087;-69
2021/08/25 03:33:54;;;;;;;13.50;12.18;;;12.20;99.90;;;;;;5032358;28;20124;-70
2021/08/25 03:36:20;;;;;;;13.18;11.98;;;12.30;99.90;;;;;;5033435;28;20041;-69
2021/08/25 03:38:45;;;;;;;14.02;12.63;;;12.30;99.90;;;;;;5033401;28;20021;-68
2021/08/25 03:41:11;;;;;;;13.57;12.27;;;12.30;99.90;;;;;;5033835;28;20040;-70
2021/08/25 03:43:37;;;;;;;14.50;13.00;;;12.30;99.90;;;;;;5033564;28;20477;-68
2021/08/25 03:46:02;;;;;;;15.20;12.65;;;12.30;99.90;;;;;;5033326;28;20040;-70
2021/08/25 03:48:28;;;;;;;14.90;13.43;;;12.30;99.90;;;;;;5032885;28;20104;-70
2021/08/25 03:50:53;;;;;;;16.33;13.07;;;12.30;99.90;;;;;;5031357;28;20017;-70
2021/08/25 03:53:19;;;;;;;14.00;12.70;;;12.40;99.90;;;;;;5033266;28;20079;-70
2021/08/25 03:55:44;;;;;;;13.88;12.57;;;12.40;99.90;;;;;;5033149;28;20079;-69
2021/08/25 03:58:10;;;;;;;13.88;12.52;;;12.40;99.90;;;;;;5031873;28;20084;-69
2021/08/25 04:00:36;;;;;;;16.58;13.02;;;12.40;99.90;;;;;;5032983;28;20036;-70
2021/08/25 04:03:01;;;;;;;13.75;12.38;;;12.40;99.90;;;;;;5031943;28;20021;-71
2021/08/25 04:05:27;;;;;;;14.38;12.85;;;12.30;99.90;;;;;;5033075;28;20061;-69
2021/08/25 04:07:52;;;;;;;13.65;12.35;;;12.30;99.90;;;;;;5032844;28;20029;-69
2021/08/25 04:10:18;;;;;;;13.85;12.45;;;12.20;99.90;;;;;;5032713;28;20069;-72
2021/08/25 04:12:43;;;;;;;13.27;12.05;;;12.20;99.90;;;;;;5031766;28;20026;-70
2021/08/25 04:15:09;;;;;;;14.48;13.02;;;12.20;99.90;;;;;;5031600;28;20017;-72
2021/08/25 04:17:35;;;;;;;18.63;13.45;;;12.30;99.90;;;;;;5032792;28;20032;-71
2021/08/25 04:20:00;;;;;;;17.35;13.50;;;12.30;99.90;;;;;;5059094;28;20092;-72
2021/08/25 04:22:26;;;;;;;13.85;12.55;;;12.20;99.90;;;;;;5070850;28;20261;-70
2021/08/25 04:24:52;;;;;;;14.70;13.23;;;12.20;99.90;;;;;;5071174;28;20437;-71
2021/08/25 04:27:17;;;;;;;13.02;11.82;;;12.30;99.90;;;;;;5072561;28;20032;-69
2021/08/25 04:29:43;;;;;;;14.95;13.45;;;12.20;99.90;;;;;;5065359;28;20016;-69
2021/08/25 04:32:09;;;;;;;15.13;12.73;;;12.20;99.90;;;;;;5051987;28;20065;-70
2021/08/25 04:34:35;;;;;;;13.82;12.45;;;12.10;99.90;;;;;;5052157;28;20025;-71
2021/08/25 04:37:00;;;;;;;14.00;12.70;;;12.10;99.90;;;;;;5052455;28;20029;-71
2021/08/25 04:39:26;;;;;;;12.85;11.52;;;12.20;99.90;;;;;;5051399;28;20368;-70
2021/08/25 04:41:52;;;;;;;14.40;12.52;;;12.20;99.90;;;;;;5054131;28;20467;-69
2021/08/25 04:44:17;;;;;;;14.98;13.65;;;12.20;99.90;;;;;;5052821;28;20083;-68
2021/08/25 04:46:43;;;;;;;15.40;13.25;;;12.20;99.90;;;;;;5052225;28;20057;-71
2021/08/25 04:49:08;;;;;;;16.20;13.63;;;12.20;99.90;;;;;;5052145;28;20025;-70
2021/08/25 04:51:34;;;;;;;15.18;13.50;;;12.30;99.90;;;;;;5053660;28;20380;-70
2021/08/25 04:53:59;;;;;;;18.98;13.43;;;12.30;99.90;;;;;;5052277;28;20017;-70
2021/08/25 04:56:25;;;;;;;14.43;13.18;;;12.40;99.90;;;;;;5051790;28;20381;-70
2021/08/25 04:58:50;;;;;;;16.75;13.43;;;12.50;99.90;;;;;;5051949;28;20025;-70
2021/08/25 05:01:16;;;;;;;13.52;12.15;;;12.60;99.90;;;;;;5052248;28;20028;-70
2021/08/25 05:03:41;;;;;;;12.90;11.50;;;12.60;99.90;;;;;;5052702;28;20029;-70
2021/08/25 05:06:11;;;;;;;12.65;11.35;;;12.90;99.90;;;;;;5051561;28;20387;-70
2021/08/25 05:08:37;;;;;;;12.45;11.23;;;13.10;99.90;;;;;;5067842;28;20033;-69
2021/08/25 05:11:04;;;;;;;12.23;10.20;;;13.50;99.90;;;;;;5056417;28;20029;-70
2021/08/25 05:13:30;;;;;;;11.70;10.60;;;13.70;99.90;;;;;;5053042;28;20419;-70
2021/08/25 05:15:56;;;;;;;11.55;10.25;;;13.90;99.90;;;;;;5052088;28;20024;-70
2021/08/25 05:18:22;;;;;;;11.82;10.73;;;14.20;99.90;;;;;;5065436;28;20469;-70
2021/08/25 05:20:47;;;;;;;10.45;9.55;;;14.30;99.90;;;;;;5063224;28;20027;-71
2021/08/25 05:23:13;;;;;;;9.43;8.63;;;14.30;99.90;;;;;;5071782;28;20472;-69
2021/08/25 05:25:38;;;;;;;9.73;8.82;;;14.50;99.90;;;;;;5071347;28;20111;-69
2021/08/25 05:28:04;;;;;;;9.75;8.68;;;15.20;99.90;;;;;;5071901;28;20107;-70
2021/08/25 05:30:29;;;;;;;9.88;8.88;;;15.40;99.90;;;;;;5057909;28;20113;-70
2021/08/25 05:32:55;;;;;;;13.70;9.40;;;16.30;99.90;;;;;;5050261;28;20040;-71
2021/08/25 05:35:22;;;;;;;9.45;8.55;;;16.30;99.90;;;;;;5051342;28;20052;-70
2021/08/25 05:37:50;;;;;;;10.80;8.90;;;16.40;99.90;;;;;;5051606;28;20025;-69
2021/08/25 05:40:15;;;;;;;9.20;8.25;;;16.90;99.90;;;;;;5051508;28;20025;-69
2021/08/25 05:42:42;;;;;;;11.73;8.27;;;17.20;99.90;;;;;;5051425;28;20021;-69
2021/08/25 05:45:09;;;;;;;10.32;9.02;;;16.80;99.90;;;;;;5051307;28;20025;-70
2021/08/25 05:47:35;;;;;;;8.70;7.90;;;17.20;99.90;;;;;;5051298;28;20025;-71
2021/08/25 05:50:00;;;;;;;9.05;8.10;;;17.00;99.90;;;;;;5050182;28;20475;-70
2021/08/25 05:52:26;;;;;;;9.07;8.18;;;16.90;99.90;;;;;;5051454;28;20043;-70
2021/08/25 05:54:52;;;;;;;10.05;8.50;;;16.90;99.90;;;;;;5052912;28;20056;-69
2021/08/25 05:57:17;;;;;;;14.40;7.32;;;16.70;99.90;;;;;;5051394;28;20098;-69
2021/08/25 05:59:42;;;;;;;16.52;8.48;;;16.70;99.90;;;;;;5050041;28;20108;-70
2021/08/25 06:02:08;;;;;;;29.70;10.73;;;16.70;99.90;;;;;;5051195;28;20029;-70
2021/08/25 06:04:34;;;;;;;9.35;8.48;;;16.20;99.90;;;;;;5051445;28;20033;-69
2021/08/25 06:06:59;;;;;;;9.93;8.93;;;15.60;99.90;;;;;;5050096;28;20029;-70
2021/08/25 06:09:25;;;;;;;9.60;8.55;;;15.70;99.90;;;;;;5051213;28;20025;-70
2021/08/25 06:11:50;;;;;;;11.00;8.68;;;15.60;99.90;;;;;;5051015;28;20032;-70
2021/08/25 06:14:16;;;;;;;10.50;9.60;;;15.60;99.90;;;;;;5054691;28;20036;-69
2021/08/25 06:16:45;;;;;;;11.70;10.13;;;15.50;99.90;;;;;;5053721;28;20033;-70
2021/08/25 06:19:10;;;;;;;10.65;9.38;;;15.30;99.90;;;;;;5056823;28;20039;-69
2021/08/25 06:21:36;;;;;;;10.77;9.65;;;15.20;99.90;;;;;;5066559;28;20024;-69
2021/08/25 06:24:02;;;;;;;9.70;8.70;;;15.30;99.90;;;;;;5073484;28;20071;-69
2021/08/25 06:26:28;;;;;;;10.10;9.20;;;15.60;99.90;;;;;;5074723;28;20063;-70
2021/08/25 06:28:53;;;;;;;15.20;10.20;;;15.30;99.90;;;;;;5074218;28;20024;-70
2021/08/25 06:31:19;;;;;;;10.75;9.80;;;15.20;99.90;;;;;;5055611;28;20029;-70
2021/08/25 06:33:45;;;;;;;11.57;9.93;;;15.20;99.90;;;;;;5054658;28;20021;-71
2021/08/25 06:36:10;;;;;;;12.80;9.35;;;15.30;99.90;;;;;;5054715;28;20056;-70
2021/08/25 06:38:36;;;;;;;9.70;8.90;;;15.60;99.90;;;;;;5054392;28;20048;-69
2021/08/25 06:41:01;;;;;;;10.75;9.82;;;15.80;99.90;;;;;;5054302;28;20029;-69
2021/08/25 06:43:27;;;;;;;10.25;9.30;;;15.80;99.90;;;;;;5054543;28;20028;-70
2021/08/25 06:45:52;;;;;;;11.73;10.05;;;15.90;99.90;;;;;;5053979;28;20037;-69
2021/08/25 06:48:18;;;;;;;10.10;9.10;;;16.10;99.90;;;;;;5054408;28;20021;-70
2021/08/25 06:50:43;;;;;;;9.57;8.60;;;16.00;99.90;;;;;;5054250;28;20033;-68
2021/08/25 06:53:09;;;;;;;8.50;7.70;;;16.00;99.90;;;;;;5055576;28;20480;-69
2021/08/25 06:55:35;;;;;;;10.00;8.23;;;15.90;99.90;;;;;;5054241;28;20025;-70
2021/08/25 06:58:00;;;;;;;9.60;8.60;;;16.10;99.90;;;;;;5053700;28;20029;-70
2021/08/25 07:00:26;;;;;;;9.15;8.32;;;16.20;99.90;;;;;;5060577;28;20040;-69
2021/08/25 07:02:51;;;;;;;9.30;7.95;;;16.20;99.90;;;;;;5074188;28;20035;-70
2021/08/25 07:05:17;;;;;;;9.18;8.20;;;16.20;99.90;;;;;;5073907;28;20029;-70
2021/08/25 07:07:43;;;;;;;9.30;8.40;;;16.30;99.90;;;;;;5055745;28;20025;-71
2021/08/25 07:10:09;;;;;;;11.95;8.70;;;16.40;99.90;;;;;;5052729;28;20028;-71
2021/08/25 07:12:34;;;;;;;8.57;7.88;;;16.50;99.90;;;;;;5053374;28;20020;-72
2021/08/25 07:15:00;;;;;;;8.48;7.43;;;16.60;99.90;;;;;;5052389;28;20029;-70
2021/08/25 07:17:25;;;;;;;9.20;8.35;;;16.70;99.90;;;;;;5052424;28;20029;-71
2021/08/25 07:19:51;;;;;;;10.07;8.18;;;16.70;99.90;;;;;;5053406;28;20036;-69
2021/08/25 07:22:17;;;;;;;11.15;7.40;;;16.80;99.90;;;;;;5053449;28;20134;-71
2021/08/25 07:24:42;;;;;;;8.20;7.45;;;16.90;99.90;;;;;;5053581;28;20446;-70
2021/08/25 07:27:08;;;;;;;10.00;7.85;;;17.10;99.90;;;;;;5053310;28;20033;-70
2021/08/25 07:29:33;;;;;;;8.90;8.00;;;17.20;99.90;;;;;;5053187;28;20021;-70
2021/08/25 07:32:02;;;;;;;11.85;7.68;;;17.10;99.90;;;;;;5053010;28;20059;-71
2021/08/25 07:34:28;;;;;;;7.93;7.13;;;17.20;99.90;;;;;;5053160;28;20029;-69
2021/08/25 07:36:54;;;;;;;11.95;7.00;;;17.20;99.90;;;;;;5053375;28;20029;-69
2021/08/25 07:39:20;;;;;;;7.80;6.53;;;17.30;99.90;;;;;;5053230;28;20032;-70
2021/08/25 07:41:45;;;;;;;7.55;6.70;;;17.40;99.90;;;;;;5053306;28;20105;-71
2021/08/25 07:44:11;;;;;;;10.68;8.00;;;17.30;99.90;;;;;;5053267;28;20051;-70
2021/08/25 07:46:36;;;;;;;6.88;6.28;;;17.30;99.90;;;;;;5053093;28;20025;-70
2021/08/25 07:49:03;;;;;;;7.50;6.22;;;17.30;99.90;;;;;;5056318;28;20455;-72
2021/08/25 07:51:29;;;;;;;8.70;6.78;;;17.60;99.90;;;;;;5071894;28;20023;-72
2021/08/25 07:53:55;;;;;;;9.45;7.93;;;17.50;99.90;;;;;;5073212;28;20391;-74
2021/08/25 07:56:21;;;;;;;7.85;7.25;;;17.50;99.90;;;;;;5067274;28;20087;-73
2021/08/25 07:58:47;;;;;;;9.80;7.22;;;17.50;99.90;;;;;;5055631;28;20039;-73
2021/08/25 08:01:12;;;;;;;10.90;7.60;;;17.60;99.90;;;;;;5069443;28;20098;-73
2021/08/25 08:03:38;;;;;;;8.68;7.88;;;17.60;99.90;;;;;;5071615;28;20036;-72
2021/08/25 08:06:04;;;;;;;7.85;7.20;;;17.70;99.90;;;;;;5071514;28;20024;-71
2021/08/25 08:08:30;;;;;;;8.02;7.32;;;17.80;99.90;;;;;;5071542;28;20020;-72
2021/08/25 08:10:56;;;;;;;7.65;6.95;;;17.90;99.90;;;;;;5071760;28;20420;-71
2021/08/25 08:13:21;;;;;;;8.73;7.88;;;17.90;99.90;;;;;;5074331;28;20082;-72
2021/08/25 08:15:47;;;;;;;7.72;6.93;;;17.90;99.90;;;;;;5069661;28;20078;-72
2021/08/25 08:18:19;;;;;;;9.32;7.40;;;18.00;99.90;;;;;;5071305;28;20498;-72
2021/08/25 08:20:45;;;;;;;6.78;6.10;;;18.00;99.90;;;;;;5072744;28;20043;-72
2021/08/25 08:23:11;;;;;;;6.78;6.18;;;18.20;99.90;;;;;;5072549;28;20032;-72
2021/08/25 08:25:37;;;;;;;7.07;6.47;;;18.20;99.90;;;;;;5072423;28;20036;-72
2021/08/25 08:28:03;;;;;;;8.50;6.63;;;18.40;99.90;;;;;;5072497;28;20432;-72
2021/08/25 08:30:30;;;;;;;7.03;6.32;;;18.00;99.90;;;;;;5060146;28;20100;-72
2021/08/25 08:32:55;;;;;;;7.40;6.70;;;17.70;99.90;;;;;;5052730;28;20017;-73
2021/08/25 08:35:21;;;;;;;9.20;6.78;;;17.90;99.90;;;;;;5051896;28;20590;-73
2021/08/25 08:37:46;;;;;;;7.70;6.43;;;18.30;99.90;;;;;;5052538;28;20033;-74
2021/08/25 08:40:12;;;;;;;6.75;6.15;;;18.40;99.90;;;;;;5052513;28;20041;-74
2021/08/25 08:42:38;;;;;;;8.23;6.32;;;18.40;99.90;;;;;;5050774;28;20065;-73
2021/08/25 08:45:05;;;;;;;7.68;6.93;;;18.60;99.90;;;;;;5051859;28;20048;-74
2021/08/25 08:47:31;;;;;;;6.18;5.57;;;18.40;99.90;;;;;;5050706;28;20025;-74
2021/08/25 08:49:59;;;;;;;7.40;5.50;;;18.20;99.90;;;;;;5051789;28;20021;-72
2021/08/25 08:52:26;;;;;;;6.47;5.13;;;18.30;99.90;;;;;;5052110;28;20021;-75
2021/08/25 08:54:54;;;;;;;4.93;4.43;;;18.70;99.90;;;;;;5051942;28;20049;-72
2021/08/25 08:57:20;;;;;;;6.07;5.07;;;18.90;99.90;;;;;;5052132;28;20024;-72
2021/08/25 08:59:46;;;;;;;7.53;5.80;;;19.10;99.90;;;;;;5051800;28;20124;-72
2021/08/25 09:02:13;;;;;;;6.28;5.68;;;19.00;99.90;;;;;;5051881;28;20547;-72
2021/08/25 09:04:46;;;;;;;7.60;5.65;;;18.70;99.90;;;;;;5052128;28;20021;-72
2021/08/25 09:07:20;;;;;;;5.95;5.45;;;18.90;99.90;;;;;;5051806;28;20211;-73
2021/08/25 09:09:54;;;;;;;5.72;5.22;;;19.20;99.90;;;;;;5050670;28;20032;-71
2021/08/25 09:12:20;;;;;;;6.57;4.97;;;19.10;99.90;;;;;;5051811;28;20082;-72
2021/08/25 09:14:46;;;;;;;8.25;4.95;;;19.40;99.90;;;;;;5051694;28;20468;-73
2021/08/25 09:17:11;;;;;;;6.32;4.70;;;19.40;99.90;;;;;;5051585;28;20036;-74
2021/08/25 09:19:37;;;;;;;4.95;4.43;;;19.50;99.90;;;;;;5051452;28;20071;-72
2021/08/25 09:22:19;;;;;;;6.05;5.00;;;19.50;99.90;;;;;;5051642;28;20060;-72
2021/08/25 09:24:44;;;;;;;7.35;5.75;;;19.30;99.90;;;;;;5051857;28;20029;-72
2021/08/25 09:27:12;;;;;;;6.65;4.47;;;19.50;99.90;;;;;;5051416;28;20399;-71
2021/08/25 09:29:41;;;;;;;6.88;4.90;;;19.60;99.90;;;;;;5051385;28;20028;-71
2021/08/25 09:32:26;;;;;;;5.38;4.88;;;19.70;99.90;;;;;;5051374;28;20021;-73
2021/08/25 09:34:56;;;;;;;6.00;5.38;;;19.60;99.90;;;;;;5052111;28;20480;-75
2021/08/25 09:37:24;;;;;;;5.77;4.03;;;19.40;99.90;;;;;;5050208;28;20120;-72
2021/08/25 09:39:52;;;;;;;5.18;4.55;;;19.30;99.90;;;;;;5051434;28;20468;-72
2021/08/25 09:42:19;;;;;;;4.53;4.13;;;19.70;99.90;;;;;;5049985;28;20381;-72
2021/08/25 09:44:46;;;;;;;4.80;4.40;;;19.70;99.90;;;;;;5051581;28;20021;-73
2021/08/25 09:47:12;;;;;;;4.32;3.92;;;20.10;99.90;;;;;;5051960;28;20104;-72
2021/08/25 09:49:38;;;;;;;4.65;4.25;;;20.40;99.90;;;;;;5055410;28;20107;-73
2021/08/25 09:52:07;;;;;;;5.03;4.53;;;20.60;99.90;;;;;;5055427;28;20088;-73
2021/08/25 09:54:33;;;;;;;5.45;4.57;;;20.40;99.90;;;;;;5055373;28;20024;-73
2021/08/25 09:56:58;;;;;;;4.45;3.80;;;20.40;99.90;;;;;;5055473;28;20024;-72
2021/08/25 09:59:24;;;;;;;6.57;4.45;;;20.50;99.90;;;;;;5058807;28;20044;-72
2021/08/25 10:01:52;;;;;;;4.10;3.60;;;20.40;99.90;;;;;;5055263;28;20040;-72
2021/08/25 10:04:18;;;;;;;4.38;3.70;;;20.20;99.90;;;;;;5055539;28;20087;-72
2021/08/25 10:06:49;;;;;;;4.80;3.63;;;20.30;99.90;;;;;;5055325;28;20025;-72
2021/08/25 10:09:16;;;;;;;5.10;3.58;;;20.20;99.90;;;;;;5055141;28;20086;-72
2021/08/25 10:11:45;;;;;;;4.30;3.13;;;20.20;99.90;;;;;;5057570;28;20502;-73
2021/08/25 10:14:13;;;;;;;3.88;3.20;;;20.30;99.90;;;;;;5053839;28;20032;-72
2021/08/25 10:16:50;;;;;;;3.30;3.00;;;20.40;99.90;;;;;;5053836;28;20025;-72
2021/08/25 10:19:36;;;;;;;4.78;3.72;;;20.70;99.90;;;;;;5054981;28;20036;-71
2021/08/25 10:22:14;;;;;;;4.45;3.30;;;21.00;99.90;;;;;;5055071;28;20086;-72
2021/08/25 10:25:04;;;;;;;4.10;3.30;;;21.20;99.90;;;;;;5054059;28;20025;-72
2021/08/25 10:27:32;;;;;;;5.85;3.22;;;21.30;99.90;;;;;;5054979;28;20029;-73
2021/08/25 10:30:00;;;;;;;12.38;4.03;;;21.30;99.90;;;;;;5054325;28;20109;-73
2021/08/25 10:32:27;;;;;;;4.03;2.92;;;21.30;99.70;;;;;;5054721;28;20021;-73
2021/08/25 10:35:11;;;;;;;6.35;3.28;;;21.30;99.90;;;;;;5053289;28;20419;-72
2021/08/25 10:37:37;;;;;;;4.50;3.05;;;21.50;98.40;;;;;;5053780;28;20448;-73
2021/08/25 10:40:04;;;;;;;3.35;2.72;;;21.40;98.40;;;;;;5054470;28;20094;-73
2021/08/25 10:42:50;;;;;;;4.50;3.72;;;21.50;98.10;;;;;;5054497;28;20048;-72
2021/08/25 10:45:36;;;;;;;5.13;3.42;;;21.70;98.40;;;;;;5054374;28;20059;-72
2021/08/25 10:48:02;;;;;;;5.78;4.03;;;21.70;98.40;;;;;;5053109;28;20036;-71
2021/08/25 10:50:57;;;;;;;5.30;3.55;;;21.70;97.30;;;;;;5054171;28;20036;-73
2021/08/25 10:53:28;;;;;;;5.82;3.22;;;21.80;97.40;;;;;;5054496;28;20017;-73
2021/08/25 10:56:13;;;;;;;5.05;3.17;;;21.70;97.20;;;;;;5053005;28;20029;-71
2021/08/25 10:58:51;;;;;;;3.95;3.00;;;21.50;98.00;;;;;;5052282;28;20120;-71
2021/08/25 11:01:20;;;;;;;4.00;3.40;;;21.50;98.90;;;;;;5052759;28;20115;-72
2021/08/25 11:03:49;;;;;;;6.57;3.08;;;21.80;98.90;;;;;;5054229;28;20025;-72
2021/08/25 11:06:31;;;;;;;6.28;3.55;;;21.80;98.50;;;;;;5052767;28;20098;-72
2021/08/25 11:09:28;;;;;;;4.10;3.38;;;21.60;99.20;;;;;;5054006;28;20017;-71
2021/08/25 11:11:55;;;;;;;3.22;2.92;;;21.50;99.90;;;;;;5054187;28;20021;-73
2021/08/25 11:14:25;;;;;;;4.53;3.42;;;21.50;99.60;;;;;;5054027;28;20025;-73
2021/08/25 11:16:54;;;;;;;9.23;3.92;;;21.30;99.40;;;;;;5054030;28;20396;-73
2021/08/25 11:19:28;;;;;;;3.92;3.38;;;21.30;99.50;;;;;;5053716;28;20048;-73
2021/08/25 11:21:55;;;;;;;5.00;3.78;;;21.50;99.30;;;;;;5052470;28;20021;-73
2021/08/25 11:24:21;;;;;;;5.50;3.58;;;21.50;99.50;;;;;;5053860;28;20033;-72
2021/08/25 11:26:47;;;;;;;7.78;3.80;;;21.70;98.80;;;;;;5053541;28;20036;-73
2021/08/25 11:29:21;;;;;;;3.75;3.30;;;21.20;99.30;;;;;;5052068;28;20388;-74
2021/08/25 11:31:48;;;;;;;4.60;3.78;;;21.10;99.70;;;;;;5053555;28;20096;-74
2021/08/25 11:34:15;;;;;;;5.53;4.18;;;21.00;99.60;;;;;;5053493;28;20021;-72
2021/08/25 11:36:59;;;;;;;4.00;3.22;;;21.30;98.80;;;;;;5052366;28;20388;-71
2021/08/25 11:39:26;;;;;;;3.80;3.13;;;21.50;97.90;;;;;;5053342;28;20138;-72
2021/08/25 11:41:53;;;;;;;3.00;2.63;;;21.60;98.40;;;;;;5053520;28;20025;-72
2021/08/25 11:44:40;;;;;;;4.22;3.83;;;21.20;97.70;;;;;;5053383;28;20122;-71
2021/08/25 11:47:09;;;;;;;5.45;3.88;;;21.30;97.20;;;;;;5051858;28;20032;-74
2021/08/25 11:49:35;;;;;;;4.63;3.47;;;21.10;97.70;;;;;;5053178;28;20021;-72
2021/08/25 11:52:02;;;;;;;4.88;3.50;;;21.30;97.80;;;;;;5053130;28;20415;-72
2021/08/25 11:54:28;;;;;;;4.05;3.22;;;21.30;97.70;;;;;;5051924;28;20024;-73
2021/08/25 11:56:53;;;;;;;4.32;3.35;;;21.80;97.30;;;;;;5053067;28;20572;-73
2021/08/25 11:59:19;;;;;;;4.15;3.47;;;21.80;96.60;;;;;;5052877;28;20502;-75
2021/08/25 12:01:44;;;;;;;4.53;3.63;;;21.80;96.40;;;;;;5051673;28;20052;-72
2021/08/25 12:04:10;;;;;;;5.07;3.78;;;21.90;96.20;;;;;;5052994;28;20060;-73
2021/08/25 12:06:46;;;;;;;4.05;3.45;;;22.20;96.20;;;;;;5051559;28;20048;-73
2021/08/25 12:09:28;;;;;;;4.97;3.70;;;22.40;95.50;;;;;;5052866;28;20013;-71
2021/08/25 12:11:55;;;;;;;6.75;3.47;;;22.40;95.60;;;;;;5052504;28;20439;-73
2021/08/25 12:14:21;;;;;;;5.70;3.58;;;22.30;95.60;;;;;;5054022;28;20024;-72
2021/08/25 12:17:04;;;;;;;4.40;3.42;;;22.00;95.10;;;;;;5052773;28;20029;-72
2021/08/25 12:19:31;;;;;;;4.55;3.45;;;21.70;95.40;;;;;;5052667;28;20086;-74
2021/08/25 12:21:56;;;;;;;5.68;4.13;;;21.60;95.70;;;;;;5052683;28;20028;-72
2021/08/25 12:24:22;;;;;;;6.28;3.95;;;21.60;96.00;;;;;;5052558;28;20025;-72
2021/08/25 12:26:55;;;;;;;4.35;3.70;;;21.70;95.20;;;;;;5052554;28;20037;-75
2021/08/25 12:29:31;;;;;;;4.15;3.53;;;21.40;95.10;;;;;;5052026;28;20021;-76
2021/08/25 12:31:58;;;;;;;6.10;4.00;;;21.60;95.20;;;;;;5052715;28;20082;-73
2021/08/25 12:34:24;;;;;;;4.68;3.95;;;21.50;96.00;;;;;;5052763;28;20384;-73
2021/08/25 12:36:52;;;;;;;4.70;3.70;;;21.70;96.00;;;;;;5052673;28;20032;-72
2021/08/25 12:39:22;;;;;;;6.20;3.78;;;21.30;96.10;;;;;;5052422;28;20052;-75
2021/08/25 12:41:48;;;;;;;6.15;4.15;;;21.40;96.30;;;;;;5052645;28;20471;-73
2021/08/25 12:44:15;;;;;;;4.88;3.95;;;21.30;96.30;;;;;;5052425;28;20036;-74
2021/08/25 12:46:58;;;;;;;6.82;3.67;;;21.30;96.20;;;;;;5050980;28;20104;-73
2021/08/25 12:49:30;;;;;;;7.47;4.05;;;21.50;96.20;;;;;;5050645;28;20044;-73
2021/08/25 12:51:56;;;;;;;4.63;3.95;;;21.60;95.70;;;;;;5051173;28;20060;-72